Terminal Aerodrome Forecast
Issued by NWS

Home | Current Version | Previous Version | Text Only | Print | Product List | Glossary On
Versions: 1 2 3 4 5 6 7 8 9 10 11 12 13 14 15 16 17 18 19 20
000
FTUS46 KPDT 212326
TAFPSC
TAF
KPSC 212326Z 2200/2224 34005KT 6SM -SHRAPL SCT040 BKN060
     FM220500 VRB05KT P6SM SCT060 BKN090
     FM221500 32010KT 5SM -SNRAPL SCT020 OVC030
     FM222000 25006KT P6SM SCT060 BKN120=

USA.gov is the U.S. government's official web portal to all federal, state and local government web resources and services.